Buffalo Gap, SD (57722)

9:08 AM MDT on May 03, 2015 (GMT -0600)
RAWS | | Change Station
CLOSE
Current Station
Personal Weather Station
Location: Pringle, SD
Elevation: 4110 ft
Nearby Weather Stations

Elev 4110 ft 43.56 °N, 103.49 °W | Updated 55 minutes ago

Partly Cloudy
Partly Cloudy
57 °F
Feels Like 57 °F
N
19
Wind Variable Wind from North
Gusts 37.0 mph

Today
High -- | Low -- °F
--% Chance of Precip.
Yesterday
High -- | Low -- °F
Precip. -- in
5:43 AM 7:57 PM
Full, 100% visible
Pressure 29.94 in
Visibility 10.0 miles
Clouds Clear
Dew Point 33 °F
Humidity 40%
Rainfall in
Snow Depth Not available.
UV 4 out of 12
Pollen 10.80 out of 12
Air Quality Not available.
Flu Activity Sporadic
METAR KRAP 031452Z 35016KT 10SM CLR 14/03 A2997 RMK AO2 SLP139 T01440028 51029 $

More Conditions Fewer Conditions

Pressure 29.94 in
Visibility 10.0 miles
Clouds Clear
Dew Point 33 °F
Humidity 40%
Rainfall in
Snow Depth Not available.
UV 4 out of 12
Pollen 10.80 out of 12
Air Quality Not available.
Flu Activity Sporadic
METAR KRAP 031452Z 35016KT 10SM CLR 14/03 A2997 RMK AO2 SLP139 T01440028 51029 $

More Conditions Fewer Conditions

Nepal has a long way to go to dig out and rebuild from a devastating earthquake. We have teamed up with several charities and organizations to make contributing to the relief effort as easy as possible.
How you can help: Portlight Strategies | Red Cross

10-Day Weather Forecast

Almanac

Astronomy

May. 03, 2015 Rise Set
Actual Time
Civil Twilight
Nautical Twilight
Astronomical Twilight
Moon
Length of Visible Light
Length of Day
Tomorrow will be .
, % of the Moon is Illuminated

Today's Extremes

State Highs State Lows

Community

WunderPhotos

Upload Photos

1,818,247 photos uploaded!

WunderBlogs® & News

Nearby

Air Quality

  Air Quality AQ Index Pollutant
Not available.

Snow Depth

Station Depth Elevation

Earthquake Activity

City Distance Mag. Time & Date
Minimum magnitude displayed is 2.5.

Coastal Water Temperatures

Place Temperature

Stations

Nearby Weather Stations

Station Location Temp. Windchill Dew Point Humidity Wind Precip. Elev Updated Type